createdAt,value
2023-02-24T00:00:38.375Z,22.40
2023-02-24T00:03:44.720Z,25.10
2023-02-24T00:06:46.917Z,25.10
2023-02-24T00:09:48.948Z,24.13
2023-02-24T00:12:50.322Z,26.17
2023-02-24T00:16:00.876Z,26.37
2023-02-24T00:19:03.049Z,27.37
2023-02-24T00:22:06.433Z,26.63
2023-02-24T00:25:08.771Z,25.03
2023-02-24T00:28:10.162Z,27.57
2023-02-24T00:31:17.229Z,26.47
2023-02-24T00:34:18.755Z,28.40
2023-02-24T00:37:24.312Z,28.43
2023-02-24T00:40:26.487Z,28.83
2023-02-24T00:43:27.982Z,26.17
2023-02-24T00:46:31.175Z,27.50
2023-02-24T00:49:44.399Z,30.97
2023-02-24T00:52:45.792Z,29.80
2023-02-24T00:55:47.163Z,29.50
2023-02-24T00:58:48.562Z,33.90
2023-02-24T01:01:51.019Z,34.63
2023-02-24T01:04:52.804Z,32.67
2023-02-24T01:07:54.223Z,33.57
2023-02-24T01:11:17.013Z,32.17
2023-02-24T01:14:21.628Z,31.60
2023-02-24T01:17:23.800Z,32.33
2023-02-24T01:20:25.204Z,29.17
2023-02-24T01:23:26.655Z,32.97
2023-02-24T01:26:28.800Z,33.17
2023-02-24T01:29:30.232Z,36.17
2023-02-24T01:32:31.965Z,30.70
2023-02-24T01:35:35.143Z,31.33
2023-02-24T01:38:37.094Z,29.83
2023-02-24T01:41:44.204Z,32.83
2023-02-24T01:44:45.970Z,31.83
2023-02-24T01:47:48.180Z,33.53
2023-02-24T01:50:51.309Z,32.63
2023-02-24T01:53:52.982Z,32.83
2023-02-24T01:56:57.328Z,30.93
2023-02-24T02:00:11.031Z,31.57
2023-02-24T02:03:37.806Z,32.60
2023-02-24T02:06:40.008Z,33.97
2023-02-24T02:09:41.992Z,36.80
2023-02-24T02:12:44.964Z,35.63
2023-02-24T02:16:02.835Z,31.27
2023-02-24T02:19:29.771Z,33.73
2023-02-24T02:22:47.983Z,35.00
2023-02-24T02:26:04.139Z,37.23
2023-02-24T02:29:33.517Z,35.97
2023-02-24T02:32:52.058Z,36.57
2023-02-24T02:36:04.233Z,36.90
2023-02-24T02:39:26.809Z,39.40
2023-02-24T02:42:41.882Z,39.43
2023-02-24T02:45:49.621Z,36.13
2023-02-24T02:48:58.067Z,41.93
2023-02-24T02:52:07.377Z,38.73
2023-02-24T02:55:18.345Z,38.83
2023-02-24T02:58:26.244Z,35.93
2023-02-24T03:01:31.788Z,38.20
2023-02-24T03:04:33.936Z,37.60
2023-02-24T03:07:42.649Z,41.93
2023-02-24T03:10:50.784Z,38.50
2023-02-24T03:13:55.869Z,38.80
2023-02-24T03:16:59.111Z,34.63
2023-02-24T03:20:17.428Z,37.87
2023-02-24T03:23:26.820Z,35.77
2023-02-24T03:26:35.877Z,36.93
2023-02-24T03:29:48.833Z,36.00
2023-02-24T03:32:56.210Z,35.40
2023-02-24T03:36:01.687Z,37.60
2023-02-24T03:39:05.733Z,37.53
2023-02-24T03:42:17.896Z,36.83
2023-02-24T03:45:22.994Z,36.00
2023-02-24T03:48:27.076Z,36.37
2023-02-24T03:51:28.827Z,35.60
2023-02-24T03:54:46.827Z,40.83
2023-02-24T03:58:10.255Z,37.93
2023-02-24T04:01:55.732Z,40.23
2023-02-24T04:05:20.722Z,42.57
2023-02-24T04:08:37.935Z,35.93
2023-02-24T04:11:43.377Z,38.47
2023-02-24T04:14:56.860Z,38.77
2023-02-24T04:18:09.020Z,38.93
2023-02-24T04:21:13.230Z,39.47
2023-02-24T04:24:20.348Z,41.83
2023-02-24T04:27:24.072Z,36.20
2023-02-24T04:30:31.950Z,39.47
2023-02-24T04:33:33.785Z,37.67
2023-02-24T04:36:35.560Z,41.20
2023-02-24T04:39:38.419Z,40.77
2023-02-24T04:42:48.844Z,39.10
2023-02-24T04:45:51.532Z,42.00
2023-02-24T04:48:52.903Z,41.17
2023-02-24T04:51:54.286Z,38.87
2023-02-24T04:54:55.672Z,37.37
2023-02-24T04:57:57.225Z,40.40
2023-02-24T05:00:58.603Z,37.63
2023-02-24T05:04:00.157Z,38.80
2023-02-24T05:07:03.009Z,36.47
2023-02-24T05:10:04.833Z,39.50
2023-02-24T05:13:07.319Z,40.87
2023-02-24T05:16:09.103Z,38.57
2023-02-24T05:19:30.855Z,40.07
2023-02-24T05:22:32.227Z,38.03
2023-02-24T05:25:37.568Z,42.20
2023-02-24T05:28:41.036Z,40.50
2023-02-24T05:31:42.600Z,39.33
2023-02-24T05:34:44.127Z,38.23
2023-02-24T05:37:45.517Z,40.33
2023-02-24T05:40:47.488Z,38.83
2023-02-24T05:43:55.441Z,36.97
2023-02-24T05:47:00.666Z,35.30
2023-02-24T05:50:03.202Z,37.93
2023-02-24T05:53:04.712Z,36.83
2023-02-24T05:56:06.094Z,38.50
2023-02-24T05:59:11.201Z,36.60
2023-02-24T06:02:16.200Z,33.87
2023-02-24T06:05:28.391Z,37.93
2023-02-24T06:08:36.699Z,38.17
2023-02-24T06:11:40.541Z,38.13
2023-02-24T06:14:42.293Z,40.50
2023-02-24T06:17:44.993Z,40.90
2023-02-24T06:20:51.036Z,35.13
2023-02-24T06:23:52.515Z,37.77
2023-02-24T06:26:56.194Z,40.27
2023-02-24T06:29:57.923Z,40.73
2023-02-24T06:32:59.472Z,37.77
2023-02-24T06:36:00.942Z,40.37
2023-02-24T06:39:02.402Z,38.03
2023-02-24T06:42:05.115Z,36.37
2023-02-24T06:45:08.273Z,37.30
2023-02-24T06:48:09.773Z,38.43
2023-02-24T06:51:13.905Z,44.47
2023-02-24T06:54:15.653Z,36.30
2023-02-24T06:57:17.689Z,40.67
2023-02-24T07:00:25.087Z,39.53
2023-02-24T07:03:39.535Z,42.23
2023-02-24T07:06:42.980Z,42.27
2023-02-24T07:09:45.287Z,41.73
2023-02-24T07:12:46.776Z,39.20
2023-02-24T07:15:49.233Z,37.87
2023-02-24T07:18:56.461Z,36.70
2023-02-24T07:22:00.646Z,38.60
2023-02-24T07:25:02.069Z,37.17
2023-02-24T07:28:03.469Z,40.17
2023-02-24T07:31:08.904Z,39.60
2023-02-24T07:34:14.844Z,38.33
2023-02-24T07:37:16.695Z,41.93
2023-02-24T07:40:21.811Z,37.63
2023-02-24T07:43:23.269Z,39.63
2023-02-24T07:46:28.321Z,38.60
2023-02-24T07:49:30.322Z,40.10
2023-02-24T07:52:32.739Z,43.67
2023-02-24T07:55:35.960Z,41.37
2023-02-24T07:58:37.480Z,39.23
2023-02-24T08:01:39.005Z,38.23
2023-02-24T08:04:44.239Z,34.37
2023-02-24T08:07:49.832Z,40.77
2023-02-24T08:11:01.018Z,38.63
2023-02-24T08:14:03.511Z,36.47
2023-02-24T08:17:05.414Z,37.53
2023-02-24T08:20:13.044Z,39.83
2023-02-24T08:23:14.455Z,43.30
2023-02-24T08:26:16.004Z,39.90
2023-02-24T08:29:20.360Z,41.57
2023-02-24T08:32:24.778Z,41.43
2023-02-24T08:35:32.197Z,37.03
2023-02-24T08:38:42.542Z,44.73
2023-02-24T08:41:51.188Z,39.10
2023-02-24T08:44:53.706Z,46.13
2023-02-24T08:48:00.525Z,40.20
2023-02-24T08:51:08.613Z,40.93
2023-02-24T08:54:15.429Z,42.20
2023-02-24T08:57:18.131Z,40.80
2023-02-24T09:00:39.724Z,39.63
2023-02-24T09:03:46.060Z,43.47
2023-02-24T09:07:10.803Z,41.30
2023-02-24T09:10:17.681Z,39.73
2023-02-24T09:13:19.094Z,43.07
2023-02-24T09:16:23.432Z,38.33
2023-02-24T09:19:43.758Z,38.03
2023-02-24T09:23:07.121Z,41.63
2023-02-24T09:26:11.002Z,42.73
2023-02-24T09:29:32.165Z,38.57
2023-02-24T09:32:34.693Z,43.13
2023-02-24T09:35:37.031Z,40.57
2023-02-24T09:39:00.451Z,43.43
2023-02-24T09:42:07.969Z,41.93
2023-02-24T09:45:23.087Z,46.13
2023-02-24T09:48:43.549Z,41.13
2023-02-24T09:51:45.884Z,39.10
2023-02-24T09:55:11.078Z,37.17
2023-02-24T09:58:47.614Z,39.97
2023-02-24T10:02:02.149Z,40.57
2023-02-24T10:05:27.930Z,39.97
2023-02-24T10:08:38.044Z,37.80
2023-02-24T10:11:53.370Z,37.23
2023-02-24T10:15:16.547Z,39.60
2023-02-24T10:18:39.605Z,37.53
2023-02-24T10:21:50.273Z,40.80
2023-02-24T10:25:01.445Z,39.33
2023-02-24T10:28:24.206Z,41.97
2023-02-24T10:31:48.277Z,39.60
2023-02-24T10:34:51.708Z,38.90
2023-02-24T10:37:53.985Z,36.17
2023-02-24T10:40:59.626Z,37.20
2023-02-24T10:44:04.790Z,37.47
2023-02-24T10:47:13.816Z,39.27
2023-02-24T10:50:25.546Z,36.90
2023-02-24T10:53:37.688Z,40.77
2023-02-24T10:56:44.447Z,36.37
2023-02-24T11:00:05.568Z,40.53
2023-02-24T11:03:19.433Z,40.43
2023-02-24T11:06:40.439Z,38.77
2023-02-24T11:09:52.000Z,41.53
2023-02-24T11:13:14.607Z,49.13
2023-02-24T11:16:54.109Z,38.13
2023-02-24T11:20:10.814Z,39.03
2023-02-24T11:23:17.524Z,39.07
2023-02-24T11:26:27.172Z,35.37
2023-02-24T11:29:52.978Z,35.37
2023-02-24T11:33:26.078Z,33.63
2023-02-24T11:36:58.218Z,32.83
2023-02-24T11:40:19.672Z,34.87
2023-02-24T11:43:26.405Z,33.30
2023-02-24T11:46:52.456Z,32.47
2023-02-24T11:49:57.967Z,30.60
2023-02-24T11:53:05.861Z,32.87
2023-02-24T11:56:22.950Z,33.27
2023-02-24T11:59:38.178Z,30.63
2023-02-24T12:02:51.785Z,33.00
2023-02-24T12:05:57.072Z,27.53
2023-02-24T12:09:10.552Z,29.50
2023-02-24T12:12:20.388Z,29.57
2023-02-24T12:15:38.885Z,26.03
2023-02-24T12:19:06.372Z,30.93
2023-02-24T12:22:17.803Z,21.57
2023-02-24T12:25:23.821Z,20.80
2023-02-24T12:29:03.717Z,23.03
2023-02-24T12:32:15.724Z,25.77
2023-02-24T12:35:22.427Z,24.37
2023-02-24T12:38:32.159Z,24.43
2023-02-24T12:41:52.524Z,24.60
2023-02-24T12:45:15.818Z,25.33
2023-02-24T12:48:32.125Z,26.70
2023-02-24T12:51:37.532Z,24.13
2023-02-24T12:55:06.932Z,26.87
2023-02-24T12:58:12.142Z,23.23
2023-02-24T13:01:38.440Z,26.97
2023-02-24T13:04:49.053Z,23.53
2023-02-24T13:08:09.556Z,26.47
2023-02-24T13:11:36.336Z,23.37
2023-02-24T13:14:43.618Z,28.13
2023-02-24T13:17:48.045Z,25.40
2023-02-24T13:20:50.658Z,23.40
2023-02-24T13:24:03.363Z,25.37
2023-02-24T13:27:07.241Z,24.73
2023-02-24T13:30:11.886Z,24.00
2023-02-24T13:33:19.497Z,23.80
2023-02-24T13:36:24.669Z,24.83
2023-02-24T13:39:34.094Z,24.83
2023-02-24T13:42:35.879Z,21.43
2023-02-24T13:45:41.874Z,23.93
2023-02-24T13:48:48.058Z,25.77
2023-02-24T13:51:59.263Z,23.30
2023-02-24T13:55:20.700Z,21.43
2023-02-24T13:58:38.484Z,24.67
2023-02-24T14:01:57.346Z,21.77
2023-02-24T14:05:07.943Z,20.63
2023-02-24T14:08:18.880Z,21.43
2023-02-24T14:11:26.024Z,18.10
2023-02-24T14:14:28.631Z,23.33
2023-02-24T14:17:35.868Z,19.43
2023-02-24T14:20:37.953Z,22.73
2023-02-24T14:23:39.487Z,23.50
2023-02-24T14:26:50.679Z,23.63
2023-02-24T14:29:53.029Z,26.67
2023-02-24T14:32:55.004Z,30.17
2023-02-24T14:35:57.329Z,29.10
2023-02-24T14:39:18.103Z,28.37
2023-02-24T14:42:20.766Z,27.43
2023-02-24T14:45:26.104Z,28.37
2023-02-24T14:48:29.854Z,26.87
2023-02-24T14:51:37.429Z,26.40
2023-02-24T14:54:50.363Z,22.87
2023-02-24T14:58:01.486Z,25.03
2023-02-24T15:01:14.422Z,24.87
2023-02-24T15:04:32.135Z,23.03
2023-02-24T15:07:34.805Z,27.30
2023-02-24T15:10:36.491Z,22.03
2023-02-24T15:13:53.932Z,22.47
2023-02-24T15:17:01.497Z,23.97
2023-02-24T15:20:06.812Z,19.73
2023-02-24T15:23:32.543Z,22.87
2023-02-24T15:26:34.965Z,26.03
2023-02-24T15:29:36.373Z,22.63
2023-02-24T15:32:38.463Z,22.27
2023-02-24T15:35:48.805Z,17.67
2023-02-24T15:38:54.745Z,24.17
2023-02-24T15:42:16.807Z,20.37
2023-02-24T15:45:29.882Z,21.37
2023-02-24T15:48:31.531Z,20.23
2023-02-24T15:51:38.530Z,24.23
2023-02-24T15:54:42.328Z,22.70
2023-02-24T15:57:44.300Z,22.53
2023-02-24T16:00:46.217Z,19.43
2023-02-24T16:03:47.763Z,21.10
2023-02-24T16:06:54.754Z,20.63
2023-02-24T16:09:57.675Z,21.60
2023-02-24T16:13:00.800Z,25.63
2023-02-24T16:16:02.326Z,23.50
2023-02-24T16:19:03.832Z,23.27
2023-02-24T16:22:05.278Z,24.23
2023-02-24T16:25:07.371Z,24.93
2023-02-24T16:28:20.230Z,28.93
2023-02-24T16:31:23.028Z,23.10
2023-02-24T16:34:24.583Z,22.40
2023-02-24T16:37:29.949Z,22.43
2023-02-24T16:40:37.552Z,22.70
2023-02-24T16:43:39.715Z,20.87
2023-02-24T16:46:44.103Z,25.63
2023-02-24T16:49:45.622Z,18.93
2023-02-24T16:52:47.077Z,14.60
2023-02-24T16:55:49.365Z,16.20
2023-02-24T16:58:50.791Z,12.60
2023-02-24T17:01:54.013Z,12.43
2023-02-24T17:04:55.407Z,9.43
2023-02-24T17:07:57.698Z,6.80
2023-02-24T17:10:59.387Z,8.23
2023-02-24T17:14:00.779Z,8.47
2023-02-24T17:17:02.390Z,8.87
2023-02-24T17:20:04.606Z,9.10
2023-02-24T17:23:06.868Z,9.27
2023-02-24T17:26:13.128Z,7.97
2023-02-24T17:29:14.821Z,9.27
2023-02-24T17:32:16.427Z,8.23
2023-02-24T17:35:18.728Z,7.10
2023-02-24T17:38:22.259Z,10.23
2023-02-24T17:41:24.908Z,9.70
2023-02-24T17:44:26.357Z,8.57
2023-02-24T17:47:28.136Z,9.47
2023-02-24T17:50:29.736Z,9.87
2023-02-24T17:53:31.690Z,8.80
2023-02-24T17:56:33.095Z,8.30
2023-02-24T17:59:37.705Z,9.67
2023-02-24T18:02:39.841Z,12.10
2023-02-24T18:05:41.331Z,9.00
2023-02-24T18:08:42.822Z,10.93
2023-02-24T18:11:45.769Z,9.27
2023-02-24T18:14:56.162Z,8.97
2023-02-24T18:18:03.951Z,6.80
2023-02-24T18:21:06.814Z,6.17
2023-02-24T18:24:09.283Z,5.77
2023-02-24T18:27:10.754Z,6.37
2023-02-24T18:30:13.135Z,9.53
2023-02-24T18:33:14.878Z,6.40
2023-02-24T18:36:17.683Z,6.57
2023-02-24T18:39:19.092Z,6.30
2023-02-24T18:42:20.612Z,9.23
2023-02-24T18:45:23.801Z,8.60
2023-02-24T18:48:26.289Z,7.63
2023-02-24T18:51:28.891Z,8.73
2023-02-24T18:54:30.338Z,8.60
2023-02-24T18:57:31.718Z,10.23
2023-02-24T19:00:33.220Z,8.77
2023-02-24T19:03:34.641Z,10.43
2023-02-24T19:06:37.667Z,8.17
2023-02-24T19:09:41.566Z,7.80
2023-02-24T19:12:43.175Z,6.73
2023-02-24T19:15:44.715Z,6.83
2023-02-24T19:18:50.087Z,6.73
2023-02-24T19:21:51.586Z,5.03
2023-02-24T19:24:52.961Z,6.20
2023-02-24T19:27:54.385Z,5.80
2023-02-24T19:30:56.178Z,8.53
2023-02-24T19:34:01.501Z,9.33
2023-02-24T19:37:02.927Z,13.87
2023-02-24T19:40:04.549Z,7.73
2023-02-24T19:43:06.639Z,5.20
2023-02-24T19:46:10.966Z,5.03
2023-02-24T19:49:13.148Z,2.63
2023-02-24T19:52:14.563Z,3.57
2023-02-24T19:55:16.095Z,7.40
2023-02-24T19:58:17.513Z,3.47
2023-02-24T20:01:19.123Z,2.93
2023-02-24T20:04:21.964Z,4.07
2023-02-24T20:07:24.337Z,8.20
2023-02-24T20:10:25.800Z,5.90
2023-02-24T20:13:27.645Z,4.40
2023-02-24T20:16:32.475Z,6.40
2023-02-24T20:19:34.200Z,5.93
2023-02-24T20:22:35.635Z,5.57
2023-02-24T20:25:37.064Z,6.70
2023-02-24T20:28:38.451Z,12.23
2023-02-24T20:31:40.594Z,15.13
2023-02-24T20:34:42.358Z,10.17
2023-02-24T20:37:43.761Z,6.97
2023-02-24T20:40:45.138Z,5.03
2023-02-24T20:43:46.920Z,6.13
2023-02-24T20:46:48.388Z,6.50
2023-02-24T20:49:49.782Z,4.83
2023-02-24T20:52:51.323Z,8.60
2023-02-24T20:56:01.204Z,5.67
2023-02-24T20:59:08.854Z,4.00
2023-02-24T21:02:11.654Z,4.97
2023-02-24T21:05:20.223Z,5.77
2023-02-24T21:08:21.596Z,4.27
2023-02-24T21:11:23.765Z,5.57
2023-02-24T21:14:25.223Z,5.47
2023-02-24T21:17:26.620Z,5.57
2023-02-24T21:20:28.009Z,4.40
2023-02-24T21:23:29.452Z,3.33
2023-02-24T21:26:30.825Z,4.93
2023-02-24T21:29:32.220Z,4.20
2023-02-24T21:32:34.088Z,4.63
2023-02-24T21:35:35.524Z,5.33
2023-02-24T21:38:37.750Z,4.10
2023-02-24T21:41:39.202Z,8.27
2023-02-24T21:44:44.162Z,4.97
2023-02-24T21:47:46.056Z,5.57
2023-02-24T21:51:00.219Z,4.33
2023-02-24T21:54:01.641Z,7.80
2023-02-24T21:57:03.588Z,7.20
2023-02-24T22:00:17.843Z,7.47
2023-02-24T22:03:19.289Z,11.10
2023-02-24T22:06:21.239Z,4.77
2023-02-24T22:09:22.954Z,6.73
2023-02-24T22:12:24.333Z,6.17
2023-02-24T22:15:25.821Z,7.30
2023-02-24T22:18:27.421Z,6.93
2023-02-24T22:21:29.880Z,8.57
2023-02-24T22:24:31.637Z,6.50
2023-02-24T22:27:33.513Z,5.87
2023-02-24T22:30:35.174Z,5.63
2023-02-24T22:33:40.640Z,5.77
2023-02-24T22:36:42.057Z,9.43
2023-02-24T22:39:43.427Z,8.20
2023-02-24T22:42:44.812Z,11.53
2023-02-24T22:45:55.843Z,5.37
2023-02-24T22:48:57.621Z,5.67
2023-02-24T22:51:59.087Z,6.90
2023-02-24T22:55:01.040Z,8.37
2023-02-24T22:58:02.430Z,5.40
2023-02-24T23:01:28.242Z,8.13
2023-02-24T23:04:29.776Z,8.57
2023-02-24T23:07:31.158Z,7.87
2023-02-24T23:10:33.394Z,6.00
2023-02-24T23:13:38.230Z,7.57
2023-02-24T23:16:41.233Z,7.53
2023-02-24T23:19:42.663Z,7.80
2023-02-24T23:22:45.138Z,8.07
2023-02-24T23:25:51.266Z,8.00
2023-02-24T23:28:52.749Z,5.80
2023-02-24T23:31:54.402Z,7.90
2023-02-24T23:34:56.116Z,7.17
2023-02-24T23:37:57.546Z,7.23
2023-02-24T23:40:59.397Z,6.63
2023-02-24T23:44:00.806Z,5.93
2023-02-24T23:47:04.867Z,8.83
2023-02-24T23:50:07.545Z,6.27
2023-02-24T23:53:09.912Z,7.67
2023-02-24T23:56:23.893Z,8.23
2023-02-24T23:59:26.452Z,5.87
